createdAt,value
2018-03-24T00:01:55.733Z,92.30
2018-03-24T00:04:23.780Z,92.00
2018-03-24T00:06:52.626Z,92.80
2018-03-24T00:09:20.693Z,92.40
2018-03-24T00:11:48.779Z,92.30
2018-03-24T00:14:16.841Z,92.20
2018-03-24T00:16:45.677Z,92.70
2018-03-24T00:19:13.749Z,92.70
2018-03-24T00:21:41.848Z,92.80
2018-03-24T00:24:09.961Z,93.00
2018-03-24T00:26:38.028Z,92.80
2018-03-24T00:29:06.085Z,92.60
2018-03-24T00:31:38.162Z,92.60
2018-03-24T00:34:06.371Z,92.80
2018-03-24T00:36:34.432Z,93.20
2018-03-24T00:39:02.524Z,93.20
2018-03-24T00:41:30.595Z,92.80
2018-03-24T00:43:58.663Z,92.60
2018-03-24T00:46:27.505Z,92.70
2018-03-24T00:48:55.568Z,92.70
2018-03-24T00:51:24.218Z,92.90
2018-03-24T00:53:52.283Z,93.20
2018-03-24T00:56:20.344Z,93.00
2018-03-24T00:58:48.438Z,92.90
2018-03-24T01:01:16.628Z,92.90
2018-03-24T01:03:44.706Z,92.70
2018-03-24T01:06:12.814Z,92.80
2018-03-24T01:08:40.879Z,92.70
2018-03-24T01:11:09.957Z,92.60
2018-03-24T01:13:38.078Z,92.80
2018-03-24T01:16:06.222Z,92.70
2018-03-24T01:18:35.148Z,92.60
2018-03-24T01:21:03.208Z,92.60
2018-03-24T01:23:31.300Z,92.60
2018-03-24T01:25:59.378Z,92.60
2018-03-24T01:28:27.443Z,92.70
2018-03-24T01:30:55.504Z,92.50
2018-03-24T01:33:23.562Z,92.30
2018-03-24T01:35:51.666Z,92.20
2018-03-24T01:38:19.768Z,92.00
2018-03-24T01:40:48.600Z,91.70
2018-03-24T01:43:16.683Z,91.70
2018-03-24T01:45:44.740Z,91.50
2018-03-24T01:48:12.828Z,91.20
2018-03-24T01:50:41.710Z,90.80
2018-03-24T01:53:09.786Z,90.80
2018-03-24T01:55:37.869Z,90.60
2018-03-24T01:58:05.934Z,90.50
2018-03-24T02:00:33.979Z,90.40
2018-03-24T02:03:02.044Z,90.50
2018-03-24T02:05:30.899Z,90.50
2018-03-24T02:07:59.728Z,90.20
2018-03-24T02:10:27.793Z,90.20
2018-03-24T02:12:56.753Z,90.30
2018-03-24T02:15:24.866Z,90.20
2018-03-24T02:17:52.937Z,90.20
2018-03-24T02:20:21.224Z,90.40
2018-03-24T02:22:49.313Z,90.40
2018-03-24T02:25:18.170Z,90.10
2018-03-24T02:27:46.792Z,90.50
2018-03-24T02:30:14.848Z,90.60
2018-03-24T02:32:42.926Z,90.60
2018-03-24T02:35:11.024Z,90.70
2018-03-24T02:37:39.079Z,90.80
2018-03-24T02:40:07.173Z,90.70
2018-03-24T02:42:35.251Z,90.90
2018-03-24T02:45:03.450Z,90.70
2018-03-24T02:47:31.514Z,90.40
2018-03-24T02:50:00.505Z,90.10
2018-03-24T02:52:28.565Z,89.90
2018-03-24T02:54:56.633Z,89.30
2018-03-24T02:57:24.718Z,88.40
2018-03-24T02:59:52.778Z,88.50
2018-03-24T03:02:21.630Z,87.40
2018-03-24T03:04:49.678Z,87.40
2018-03-24T03:07:18.516Z,86.50
2018-03-24T03:09:46.575Z,86.40
2018-03-24T03:12:14.689Z,86.20
2018-03-24T03:14:42.770Z,86.30
2018-03-24T03:17:10.892Z,85.90
2018-03-24T03:19:38.946Z,86.50
2018-03-24T03:22:07.048Z,86.10
2018-03-24T03:24:35.128Z,85.80
2018-03-24T03:27:03.194Z,85.90
2018-03-24T03:29:31.340Z,86.00
2018-03-24T03:32:00.192Z,86.10
2018-03-24T03:34:28.305Z,85.70
2018-03-24T03:36:56.357Z,85.30
2018-03-24T03:39:24.429Z,85.70
2018-03-24T03:41:52.500Z,85.70
2018-03-24T03:44:20.582Z,85.70
2018-03-24T03:46:48.651Z,85.20
2018-03-24T03:49:16.741Z,85.60
2018-03-24T03:51:45.576Z,85.50
2018-03-24T03:54:13.649Z,85.50
2018-03-24T03:56:41.845Z,85.80
2018-03-24T03:59:09.954Z,86.20
2018-03-24T04:01:38.017Z,85.90
2018-03-24T04:04:06.095Z,85.40
2018-03-24T04:06:34.484Z,85.40
2018-03-24T04:09:02.561Z,85.40
2018-03-24T04:11:30.616Z,85.50
2018-03-24T04:13:58.694Z,85.40
2018-03-24T04:16:26.850Z,85.10
2018-03-24T04:18:54.895Z,84.80
2018-03-24T04:21:22.952Z,85.20
2018-03-24T04:23:51.033Z,85.40
2018-03-24T04:26:19.087Z,85.00
2018-03-24T04:28:47.924Z,85.00
2018-03-24T04:31:15.993Z,85.00
2018-03-24T04:33:44.052Z,84.70
2018-03-24T04:36:12.888Z,84.30
2018-03-24T04:38:40.963Z,84.30
2018-03-24T04:41:09.023Z,83.80
2018-03-24T04:43:37.870Z,82.90
2018-03-24T04:46:05.925Z,82.80
2018-03-24T04:48:33.998Z,82.90
2018-03-24T04:51:02.824Z,83.60
2018-03-24T04:53:31.053Z,83.60
2018-03-24T04:55:59.107Z,83.60
2018-03-24T04:58:27.176Z,83.70
2018-03-24T05:00:55.250Z,83.70
2018-03-24T05:03:23.313Z,83.50
2018-03-24T05:05:52.153Z,84.10
2018-03-24T05:08:20.228Z,84.10
2018-03-24T05:10:48.308Z,84.10
2018-03-24T05:13:16.434Z,83.90
2018-03-24T05:15:44.518Z,84.10
2018-03-24T05:18:12.569Z,84.10
2018-03-24T05:20:40.661Z,84.30
2018-03-24T05:23:08.719Z,83.70
2018-03-24T05:25:36.793Z,83.60
2018-03-24T05:28:05.696Z,83.90
2018-03-24T05:30:34.521Z,83.70
2018-03-24T05:33:02.582Z,83.70
2018-03-24T05:35:31.435Z,83.90
2018-03-24T05:37:59.504Z,83.90
2018-03-24T05:40:27.588Z,83.00
2018-03-24T05:42:55.648Z,82.90
2018-03-24T05:45:23.731Z,83.20
2018-03-24T05:47:51.806Z,83.00
2018-03-24T05:50:19.906Z,82.80
2018-03-24T05:52:47.981Z,83.70
2018-03-24T05:55:16.063Z,82.20
2018-03-24T05:57:44.112Z,83.00
2018-03-24T06:00:12.195Z,82.80
2018-03-24T06:02:40.249Z,82.50
2018-03-24T06:05:08.325Z,83.00
2018-03-24T06:07:36.422Z,82.10
2018-03-24T06:10:04.465Z,82.40
2018-03-24T06:12:32.541Z,81.80
2018-03-24T06:15:00.608Z,81.50
2018-03-24T06:17:29.444Z,82.20
2018-03-24T06:19:57.516Z,82.20
2018-03-24T06:22:25.568Z,82.10
2018-03-24T06:24:54.614Z,81.30
2018-03-24T06:27:22.692Z,81.30
2018-03-24T06:29:50.758Z,81.70
2018-03-24T06:32:19.600Z,81.70
2018-03-24T06:34:47.687Z,81.70
2018-03-24T06:37:16.570Z,81.60
2018-03-24T06:39:44.774Z,81.30
2018-03-24T06:42:12.838Z,81.30
2018-03-24T06:44:40.978Z,81.30
2018-03-24T06:47:08.986Z,81.30
2018-03-24T06:49:37.037Z,81.60
2018-03-24T06:52:05.093Z,81.00
2018-03-24T06:54:33.258Z,81.10
2018-03-24T06:57:01.326Z,80.50
2018-03-24T06:59:29.388Z,80.60
2018-03-24T07:01:58.216Z,80.40
2018-03-24T07:04:26.292Z,80.40
2018-03-24T07:06:54.378Z,80.10
2018-03-24T07:09:22.428Z,80.30
2018-03-24T07:11:50.496Z,80.30
2018-03-24T07:14:18.705Z,80.00
2018-03-24T07:16:54.341Z,78.50
2018-03-24T07:21:56.661Z,79.40
2018-03-24T07:24:27.459Z,79.30
2018-03-24T07:26:56.632Z,79.70
2018-03-24T07:29:24.772Z,79.20
2018-03-24T07:31:52.983Z,79.90
2018-03-24T07:34:21.043Z,79.80
2018-03-24T07:36:49.118Z,78.90
2018-03-24T07:39:17.172Z,78.40
2018-03-24T07:41:45.996Z,76.40
2018-03-24T07:44:14.078Z,76.30
2018-03-24T07:46:42.210Z,77.20
2018-03-24T07:49:10.282Z,74.90
2018-03-24T07:51:38.341Z,73.90
2018-03-24T07:54:06.428Z,73.20
2018-03-24T07:56:34.504Z,71.60
2018-03-24T07:59:02.583Z,73.90
2018-03-24T08:01:30.656Z,72.00
2018-03-24T08:03:58.704Z,71.90
2018-03-24T08:06:26.786Z,71.60
2018-03-24T08:08:54.862Z,70.70
2018-03-24T08:11:22.942Z,69.60
2018-03-24T08:13:51.052Z,69.00
2018-03-24T08:16:19.102Z,69.00
2018-03-24T08:18:47.169Z,67.70
2018-03-24T08:21:15.244Z,66.90
2018-03-24T08:23:43.317Z,68.00
2018-03-24T08:26:11.385Z,66.50
2018-03-24T08:28:39.552Z,66.90
2018-03-24T08:31:07.620Z,65.10
2018-03-24T08:33:35.672Z,65.50
2018-03-24T08:36:03.732Z,63.60
2018-03-24T08:38:31.806Z,60.40
2018-03-24T08:40:59.870Z,62.80
2018-03-24T08:43:29.248Z,61.20
2018-03-24T08:45:57.316Z,61.10
2018-03-24T08:48:25.390Z,58.60
2018-03-24T08:50:53.452Z,57.40
2018-03-24T08:53:21.561Z,57.60
2018-03-24T08:55:53.576Z,60.10
2018-03-24T08:58:21.633Z,59.90
2018-03-24T09:00:49.702Z,56.20
2018-03-24T09:03:17.910Z,58.00
2018-03-24T09:05:45.985Z,57.60
2018-03-24T09:08:14.057Z,56.90
2018-03-24T09:10:42.127Z,53.70
2018-03-24T09:13:10.196Z,55.20
2018-03-24T09:15:39.022Z,53.00
2018-03-24T09:18:07.096Z,52.90
2018-03-24T09:20:41.659Z,53.70
2018-03-24T09:23:09.729Z,51.60
2018-03-24T09:25:37.789Z,51.60
2018-03-24T09:28:05.871Z,51.40
2018-03-24T09:30:33.953Z,51.60
2018-03-24T09:33:01.989Z,50.50
2018-03-24T09:35:30.067Z,50.90
2018-03-24T09:37:58.170Z,51.40
2018-03-24T09:40:26.238Z,50.40
2018-03-24T09:42:54.309Z,46.20
2018-03-24T09:45:22.377Z,37.60
2018-03-24T09:47:50.448Z,31.20
2018-03-24T09:50:18.504Z,28.10
2018-03-24T09:52:47.419Z,22.80
2018-03-24T09:55:15.413Z,22.80
2018-03-24T09:57:43.490Z,21.60
2018-03-24T10:00:11.571Z,20.20
2018-03-24T10:02:39.654Z,20.30
2018-03-24T10:05:07.700Z,21.20
2018-03-24T10:07:35.770Z,20.00
2018-03-24T10:10:04.776Z,20.20
2018-03-24T10:12:33.601Z,22.30
2018-03-24T10:15:02.433Z,21.90
2018-03-24T10:17:30.508Z,21.90
2018-03-24T10:19:58.564Z,21.80
2018-03-24T10:25:43.100Z,23.90
2018-03-24T10:28:11.170Z,23.30
2018-03-24T10:30:40.007Z,22.00
2018-03-24T10:33:08.077Z,22.00
2018-03-24T10:35:36.149Z,22.00
2018-03-24T10:38:04.229Z,21.20
2018-03-24T10:40:32.290Z,21.50
2018-03-24T10:43:06.139Z,22.50
2018-03-24T10:45:34.278Z,22.60
2018-03-24T10:48:02.612Z,22.80
2018-03-24T10:50:31.490Z,20.80
2018-03-24T10:52:59.493Z,20.80
2018-03-24T10:55:27.552Z,20.60
2018-03-24T10:57:55.601Z,20.40
2018-03-24T11:00:29.640Z,19.80
2018-03-24T11:02:57.692Z,20.30
2018-03-24T11:05:25.779Z,21.90
2018-03-24T11:07:54.062Z,22.30
2018-03-24T11:10:22.875Z,20.80
2018-03-24T11:12:50.942Z,20.90
2018-03-24T11:15:20.243Z,20.80
2018-03-24T11:17:48.301Z,20.00
2018-03-24T11:20:16.370Z,20.00
2018-03-24T11:22:45.414Z,18.70
2018-03-24T11:25:13.497Z,18.30
2018-03-24T11:27:41.549Z,18.30
2018-03-24T11:30:09.620Z,19.10
2018-03-24T11:32:37.682Z,18.40
2018-03-24T11:35:05.749Z,19.50
2018-03-24T11:37:33.817Z,19.00
2018-03-24T11:40:01.893Z,18.80
2018-03-24T11:42:29.958Z,19.30
2018-03-24T11:44:59.274Z,18.40
2018-03-24T11:47:28.216Z,18.40
2018-03-24T11:49:56.418Z,19.10
2018-03-24T11:52:24.494Z,18.40
2018-03-24T11:54:52.585Z,18.30
2018-03-24T11:57:20.655Z,19.00
2018-03-24T11:59:48.738Z,20.60
2018-03-24T12:02:16.804Z,20.50
2018-03-24T12:04:45.087Z,20.00
2018-03-24T12:07:13.149Z,19.80
2018-03-24T12:09:41.230Z,20.30
2018-03-24T12:12:09.313Z,20.90
2018-03-24T12:14:37.882Z,21.80
2018-03-24T12:17:06.071Z,21.10
2018-03-24T12:19:35.331Z,21.70
2018-03-24T12:22:03.415Z,21.80
2018-03-24T12:24:31.518Z,22.00
2018-03-24T12:26:59.590Z,21.30
2018-03-24T12:29:27.686Z,21.80
2018-03-24T12:31:55.742Z,21.10
2018-03-24T12:34:24.561Z,22.10
2018-03-24T12:36:52.651Z,22.00
2018-03-24T12:39:20.748Z,22.00
2018-03-24T12:41:48.803Z,22.30
2018-03-24T12:44:17.716Z,23.00
2018-03-24T12:46:45.796Z,22.90
2018-03-24T12:49:14.617Z,23.00
2018-03-24T12:51:42.667Z,23.00
2018-03-24T12:54:10.734Z,23.10
2018-03-24T12:56:39.581Z,23.30
2018-03-24T12:59:07.651Z,23.20
2018-03-24T13:01:35.725Z,23.20
2018-03-24T13:04:03.854Z,23.70
2018-03-24T13:06:31.934Z,24.00
2018-03-24T13:09:00.014Z,24.20
2018-03-24T13:11:28.085Z,24.60
2018-03-24T13:13:56.214Z,24.40
2018-03-24T13:16:24.264Z,25.80
2018-03-24T13:18:52.343Z,26.00
2018-03-24T13:21:20.413Z,27.30
2018-03-24T13:23:48.471Z,26.40
2018-03-24T13:26:16.555Z,25.80
2018-03-24T13:28:44.624Z,27.20
2018-03-24T13:31:13.708Z,29.70
2018-03-24T13:33:41.786Z,29.30
2018-03-24T13:36:09.848Z,30.00
2018-03-24T13:38:37.993Z,29.10
2018-03-24T13:41:06.075Z,29.60
2018-03-24T13:43:34.930Z,25.40
2018-03-24T13:46:03.033Z,25.30
2018-03-24T13:48:31.113Z,25.40
2018-03-24T13:50:59.205Z,25.50
2018-03-24T13:53:27.287Z,25.50
2018-03-24T13:55:55.360Z,25.30
2018-03-24T13:58:23.433Z,28.00
2018-03-24T14:00:51.521Z,29.30
2018-03-24T14:03:19.577Z,29.80
2018-03-24T14:05:47.654Z,29.60
2018-03-24T14:08:15.742Z,27.50
2018-03-24T14:10:43.818Z,27.10
2018-03-24T14:13:11.869Z,27.00
2018-03-24T14:15:40.739Z,26.80
2018-03-24T14:18:08.781Z,26.80
2018-03-24T14:20:36.869Z,26.50
2018-03-24T14:23:06.035Z,26.50
2018-03-24T14:25:34.112Z,26.10
2018-03-24T14:28:20.130Z,26.50
2018-03-24T14:31:00.719Z,26.60
2018-03-24T14:33:31.400Z,26.90
2018-03-24T14:36:03.376Z,27.30
2018-03-24T14:38:32.662Z,27.80
2018-03-24T14:41:00.789Z,27.70
2018-03-24T14:43:28.845Z,27.60
2018-03-24T14:45:56.913Z,27.90
2018-03-24T14:48:24.975Z,27.70
2018-03-24T14:50:53.037Z,27.00
2018-03-24T14:53:21.101Z,27.90
2018-03-24T14:55:49.175Z,28.60
2018-03-24T14:58:17.234Z,27.70
2018-03-24T15:00:45.301Z,27.20
2018-03-24T15:03:14.142Z,28.60
2018-03-24T15:05:42.261Z,28.60
2018-03-24T15:08:10.812Z,28.40
2018-03-24T15:10:38.957Z,28.70
2018-03-24T15:13:07.804Z,29.00
2018-03-24T15:15:39.662Z,28.30
2018-03-24T15:18:10.583Z,28.30
2018-03-24T15:20:38.641Z,28.70
2018-03-24T15:23:06.728Z,28.40
2018-03-24T15:25:34.832Z,28.20
2018-03-24T15:28:02.900Z,27.20
2018-03-24T15:30:43.526Z,27.40
2018-03-24T15:33:23.487Z,28.20
2018-03-24T15:36:03.451Z,28.80
2018-03-24T15:38:31.528Z,29.20
2018-03-24T15:40:59.584Z,29.70
2018-03-24T15:43:27.649Z,28.90
2018-03-24T15:45:56.216Z,28.40
2018-03-24T15:48:24.292Z,28.60
2018-03-24T15:50:52.477Z,29.80
2018-03-24T15:53:20.555Z,29.40
2018-03-24T15:55:48.665Z,29.20
2018-03-24T15:58:17.504Z,29.40
2018-03-24T16:00:45.566Z,29.30
2018-03-24T16:03:13.645Z,30.30
2018-03-24T16:05:41.969Z,30.40
2018-03-24T16:08:10.818Z,30.70
2018-03-24T16:10:38.897Z,30.70
2018-03-24T16:13:08.524Z,31.30
2018-03-24T16:15:36.831Z,31.30
2018-03-24T16:18:05.706Z,30.80
2018-03-24T16:20:33.764Z,30.70
2018-03-24T16:23:01.820Z,30.30
2018-03-24T16:25:29.877Z,30.40
2018-03-24T16:27:57.961Z,31.60
2018-03-24T16:30:26.024Z,31.90
2018-03-24T16:32:54.745Z,31.60
2018-03-24T16:35:22.859Z,31.40
2018-03-24T16:37:51.695Z,32.50
2018-03-24T16:40:19.753Z,32.50
2018-03-24T16:42:48.592Z,33.70
2018-03-24T16:45:16.654Z,33.60
2018-03-24T16:47:44.741Z,33.80
2018-03-24T16:50:12.811Z,33.80
2018-03-24T16:52:41.654Z,34.20
2018-03-24T16:55:09.700Z,34.20
2018-03-24T16:57:37.780Z,34.20
2018-03-24T17:00:06.623Z,35.40
2018-03-24T17:02:34.855Z,35.40
2018-03-24T17:05:02.913Z,36.00
2018-03-24T17:07:30.976Z,36.60
2018-03-24T17:10:00.600Z,37.90
2018-03-24T17:12:29.001Z,37.80
2018-03-24T17:14:57.153Z,38.60
2018-03-24T17:17:26.857Z,39.40
2018-03-24T17:19:55.145Z,39.40
2018-03-24T17:22:24.533Z,39.90
2018-03-24T17:24:52.781Z,40.10
2018-03-24T17:27:24.458Z,40.70
2018-03-24T17:29:52.959Z,40.70
2018-03-24T17:32:24.747Z,41.30
2018-03-24T17:34:53.708Z,41.90
2018-03-24T17:37:22.568Z,42.40
2018-03-24T17:39:51.400Z,43.20
2018-03-24T17:42:21.492Z,43.20
2018-03-24T17:44:49.768Z,43.50
2018-03-24T17:47:17.818Z,43.90
2018-03-24T17:49:45.902Z,45.10
2018-03-24T17:52:13.979Z,45.60
2018-03-24T17:54:42.067Z,45.80
2018-03-24T17:57:10.150Z,45.80
2018-03-24T17:59:38.233Z,46.70
2018-03-24T18:02:06.291Z,47.20
2018-03-24T18:04:34.381Z,47.50
2018-03-24T18:07:02.438Z,48.00
2018-03-24T18:09:31.279Z,48.70
2018-03-24T18:11:59.339Z,48.60
2018-03-24T18:14:27.409Z,49.00
2018-03-24T18:16:56.241Z,50.10
2018-03-24T18:19:24.362Z,50.10
2018-03-24T18:21:52.463Z,50.50
2018-03-24T18:24:20.560Z,50.80
2018-03-24T18:26:48.656Z,51.10
2018-03-24T18:29:17.489Z,51.20
2018-03-24T18:31:45.549Z,51.20
2018-03-24T18:34:13.643Z,51.30
2018-03-24T18:36:41.689Z,51.40
2018-03-24T18:39:09.751Z,51.40
2018-03-24T18:41:37.869Z,52.10
2018-03-24T18:44:06.696Z,52.40
2018-03-24T18:46:34.768Z,52.30
2018-03-24T18:49:02.843Z,52.60
2018-03-24T18:51:31.683Z,53.30
2018-03-24T18:53:59.766Z,53.20
2018-03-24T18:56:27.818Z,53.40
2018-03-24T18:58:55.929Z,54.30
2018-03-24T19:01:23.991Z,54.10
2018-03-24T19:03:52.056Z,54.20
2018-03-24T19:06:20.897Z,54.80
2018-03-24T19:08:49.096Z,54.80
2018-03-24T19:11:17.170Z,55.00
2018-03-24T19:13:45.265Z,55.20
2018-03-24T19:16:13.340Z,55.30
2018-03-24T19:18:41.415Z,55.30
2018-03-24T19:21:09.484Z,55.90
2018-03-24T19:23:37.566Z,55.80
2018-03-24T19:26:05.629Z,56.20
2018-03-24T19:28:34.478Z,56.50
2018-03-24T19:31:02.552Z,56.50
2018-03-24T19:33:30.628Z,56.40
2018-03-24T19:35:58.729Z,56.80
2018-03-24T19:38:26.811Z,56.90
2018-03-24T19:40:54.875Z,57.30
2018-03-24T19:43:22.946Z,57.30
2018-03-24T19:45:51.017Z,57.30
2018-03-24T19:48:19.842Z,57.70
2018-03-24T19:50:47.919Z,57.60
2018-03-24T19:53:15.978Z,57.90
2018-03-24T19:55:44.036Z,58.90
2018-03-24T19:58:12.113Z,58.40
2018-03-24T20:00:40.206Z,58.80
2018-03-24T20:03:08.252Z,59.10
2018-03-24T20:05:36.325Z,59.20
2018-03-24T20:08:04.398Z,59.60
2018-03-24T20:10:32.468Z,59.50
2018-03-24T20:13:01.290Z,59.80
2018-03-24T20:15:29.388Z,59.70
2018-03-24T20:17:57.446Z,60.10
2018-03-24T20:20:25.525Z,60.60
2018-03-24T20:22:54.390Z,60.80
2018-03-24T20:25:22.461Z,60.70
2018-03-24T20:27:50.565Z,60.90
2018-03-24T20:30:18.623Z,61.00
2018-03-24T20:32:46.694Z,61.30
2018-03-24T20:35:14.767Z,61.90
2018-03-24T20:37:42.843Z,61.90
2018-03-24T20:40:10.986Z,62.40
2018-03-24T20:42:39.022Z,62.30
2018-03-24T20:45:07.185Z,62.60
2018-03-24T20:47:35.999Z,63.00
2018-03-24T20:50:04.125Z,62.90
2018-03-24T20:52:32.190Z,63.20
2018-03-24T20:55:00.280Z,63.10
2018-03-24T20:57:28.372Z,63.40
2018-03-24T20:59:56.544Z,63.40
2018-03-24T21:02:24.574Z,63.60
2018-03-24T21:04:52.665Z,63.60
2018-03-24T21:07:21.507Z,64.20
2018-03-24T21:09:50.484Z,64.10
2018-03-24T21:12:18.626Z,64.30
2018-03-24T21:14:46.692Z,64.20
2018-03-24T21:17:14.765Z,64.20
2018-03-24T21:19:42.831Z,64.10
2018-03-24T21:22:10.930Z,64.40
2018-03-24T21:24:38.972Z,64.30
2018-03-24T21:27:07.808Z,64.70
2018-03-24T21:29:35.897Z,64.70
2018-03-24T21:32:03.956Z,64.70
2018-03-24T21:34:32.017Z,64.70
2018-03-24T21:37:00.083Z,64.80
2018-03-24T21:39:28.258Z,65.00
2018-03-24T21:41:56.400Z,64.90
2018-03-24T21:44:24.456Z,64.80
2018-03-24T21:46:52.940Z,64.70
2018-03-24T21:49:21.004Z,65.50
2018-03-24T21:51:49.079Z,65.00
2018-03-24T21:54:17.196Z,64.90
2018-03-24T21:56:45.429Z,64.90
2018-03-24T21:59:13.504Z,65.00
2018-03-24T22:01:41.577Z,64.80
2018-03-24T22:04:09.687Z,65.00
2018-03-24T22:06:38.965Z,64.90
2018-03-24T22:09:07.000Z,64.90
2018-03-24T22:11:35.106Z,65.10
2018-03-24T22:14:03.194Z,65.20
2018-03-24T22:16:31.279Z,65.00
2018-03-24T22:18:59.421Z,64.70
2018-03-24T22:21:27.478Z,64.60
2018-03-24T22:23:55.627Z,64.80
2018-03-24T22:26:23.699Z,64.70
2018-03-24T22:28:51.765Z,64.60
2018-03-24T22:31:19.846Z,64.40
2018-03-24T22:33:47.916Z,64.70
2018-03-24T22:36:16.033Z,64.80
2018-03-24T22:38:44.112Z,64.50
2018-03-24T22:41:12.357Z,64.50
2018-03-24T22:43:40.405Z,64.70
2018-03-24T22:46:08.851Z,64.90
2018-03-24T22:48:36.968Z,64.60
2018-03-24T22:51:05.041Z,64.70
2018-03-24T22:53:33.092Z,64.60
2018-03-24T22:56:01.161Z,64.80
2018-03-24T22:58:29.212Z,64.80
2018-03-24T23:00:57.280Z,65.20
2018-03-24T23:03:25.359Z,66.50
2018-03-24T23:05:53.713Z,65.30
2018-03-24T23:08:21.784Z,65.00
2018-03-24T23:10:49.852Z,65.90
2018-03-24T23:13:18.694Z,67.10
2018-03-24T23:15:46.752Z,66.70
2018-03-24T23:18:14.899Z,67.60
2018-03-24T23:20:42.978Z,67.70
2018-03-24T23:23:11.042Z,67.70
2018-03-24T23:25:39.112Z,67.70
2018-03-24T23:28:07.173Z,67.70
2018-03-24T23:30:35.274Z,67.50
2018-03-24T23:33:03.346Z,67.80
2018-03-24T23:35:31.497Z,68.00
2018-03-24T23:37:59.551Z,68.30
2018-03-24T23:40:27.621Z,68.90
2018-03-24T23:42:55.680Z,68.80
2018-03-24T23:45:23.796Z,68.60
2018-03-24T23:47:51.842Z,69.10
2018-03-24T23:50:19.884Z,70.10
2018-03-24T23:52:48.068Z,70.30
2018-03-24T23:55:16.145Z,70.30
2018-03-24T23:57:44.773Z,70.40
